EST,Max TemperatureF,Mean TemperatureF,Min TemperatureF,Max Dew PointF,MeanDew PointF,Min DewpointF,Max Humidity, Mean Humidity, Min Humidity, Max Sea Level PressureIn, Mean Sea Level PressureIn, Min Sea Level PressureIn, Max VisibilityMiles, Mean VisibilityMiles, Min VisibilityMiles, Max Wind SpeedMPH, Mean Wind SpeedMPH, Max Gust SpeedMPH,PrecipitationIn, CloudCover, Events, WindDirDegrees
2012-11-1,48,46,44,41,38,35,87,75,62,29.52,29.50,29.47,10,10,10,12,6,,0.01,8,Rain,184
2012-11-2,48,44,39,38,34,31,86,65,52,29.64,29.56,29.51,10,10,10,9,6,,0.00,8,,248
2012-11-3,48,44,41,34,32,29,73,63,50,29.84,29.73,29.63,10,10,10,13,4,20,0.00,7,,325
2012-11-4,43,39,35,32,29,21,75,64,56,30.00,29.91,29.83,10,10,10,10,7,18,0.00,8,,334
2012-11-5,39,34,28,25,20,16,72,56,46,30.14,30.05,29.98,10,10,9,16,7,22,0.00,8,,327
2012-11-6,39,29,19,19,15,12,81,60,32,30.25,30.21,30.14,10,10,10,8,2,,0.00,0,,17
2012-11-7,35,27,19,20,18,15,88,67,52,30.25,30.11,29.93,10,10,10,8,3,,0.00,3,,353
2012-11-8,39,36,33,31,25,16,87,65,44,29.91,29.86,29.81,10,9,3,20,10,29,0.01,8,Snow,346
2012-11-9,50,42,35,31,25,18,76,55,28,30.09,30.00,29.89,10,10,10,14,7,22,0.00,5,,329
2012-11-10,50,38,26,32,24,14,89,62,24,30.44,30.30,30.11,10,10,8,12,2,,0.00,2,,1
2012-11-11,61,49,37,40,33,26,93,69,44,30.45,30.41,30.33,10,9,7,8,1,,0.00,4,,195
2012-11-12,66,52,37,53,44,36,93,73,43,30.41,30.29,30.09,10,8,1,23,5,34,0.00,2,,191
2012-11-13,64,46,26,54,39,23,90,78,67,30.47,30.23,30.01,10,8,2,24,10,34,0.44,6,Rain,294
2012-11-14,44,34,23,27,22,19,92,73,40,30.61,30.55,30.48,10,10,10,9,1,,0.00,0,,23
2012-11-15,41,30,19,26,21,15,89,77,47,30.53,30.44,30.35,10,10,10,4,0,,0.00,0,,170
2012-11-16,42,30,19,26,21,16,91,80,51,30.49,30.37,30.31,10,9,1,5,1,,0.00,2,,48
2012-11-17,46,32,19,28,22,16,89,76,42,30.71,30.62,30.48,10,10,9,4,0,,0.00,1,,350
2012-11-18,46,32,18,28,20,13,89,77,46,30.78,30.70,30.66,10,9,7,0,0,,0.00,0,,-1
2012-11-19,46,32,19,26,20,16,93,83,34,30.64,30.53,30.32,10,4,0,5,0,,0.00,4,Fog,13
2012-11-20,43,31,19,27,22,15,85,76,49,30.29,30.23,30.17,10,9,7,6,0,,0.00,1,,40
2012-11-21,50,36,23,28,25,19,85,74,35,30.30,30.25,30.21,10,10,7,0,0,,0.00,1,,-1
2012-11-22,53,37,21,31,23,17,89,76,41,30.32,30.23,30.12,10,9,7,0,0,,0.00,0,,-1
2012-11-23,55,38,21,39,30,18,89,71,39,30.09,29.85,29.58,10,9,7,15,3,23,0.00,2,,197
2012-11-24,46,37,28,41,24,17,86,63,40,29.66,29.59,29.52,10,8,1,15,8,24,0.02,7,Snow,274
2012-11-25,35,32,28,20,15,7,72,52,31,29.82,29.74,29.66,10,10,5,21,8,25,0.00,4,Snow,281
2012-11-26,37,30,23,24,21,17,81,70,50,30.24,30.00,29.83,10,10,10,10,1,,0.00,7,,316
2012-11-27,39,30,21,23,20,17,85,69,50,30.31,30.27,30.23,10,10,10,6,1,,0.00,6,,265
2012-11-28,36,32,28,24,22,20,85,70,52,30.24,30.18,30.11,10,10,9,10,2,,0.00,7,,192
2012-11-29,39,33,27,30,22,16,86,65,40,30.25,30.16,30.07,10,7,2,17,7,25,0.02,7,Snow,304
2012-11-30,27,22,17,19,10,4,74,60,46,30.61,30.46,30.26,10,9,2,12,7,17,0.00,4,Snow,7